NCAR-RAP Real-Time Weather Data

Output produced by METARs form (06 May 2021  15:20 UTC)
found at http://weather.rap.ucar.edu/surface/
 
KDEC 061454Z 18011G19KT 10SM BKN080 OVC100 13/08 A3007 RMK AO2 SLP182 60001 T01330083 58013
KDEC 061354Z 21003KT 10SM FEW065 OVC090 13/09 A3009 RMK AO2 SLP190 T01330089
KDEC 061254Z 18009KT 10SM FEW060 SCT080 OVC095 12/09 A3010 RMK AO2 RAB19E43 SLP192 P0001 T01220089
KDEC 061154Z 19006KT 10SM BKN080 OVC100 12/08 A3011 RMK AO2 SLP193 T01170078 10117 20083 55001
KDEC 061054Z 20008KT 10SM BKN110 11/07 A3010 RMK AO2 SLP191 T01110072
KDEC 060954Z AUTO 20006KT 10SM FEW120 09/07 A3010 RMK AO2 SLP192 T00940072
KDEC 060854Z AUTO 20005KT 10SM FEW120 10/07 A3011 RMK AO2 SLP195 T01000072 56007
KDEC 060754Z AUTO 22003KT 10SM FEW120 09/07 A3011 RMK AO2 SLP196 T00890067
KDEC 060654Z AUTO 19003KT 10SM CLR 11/06 A3012 RMK AO2 SLP198 T01060061
KDEC 060554Z AUTO 22003KT 10SM CLR 08/06 A3013 RMK AO2 SLP203 T00830061 10172 20078 401780056 58008
KDEC 060454Z AUTO 20003KT 10SM CLR 10/07 A3013 RMK AO2 SLP204 T01000067
KDEC 060354Z AUTO 21005KT 10SM CLR 11/06 A3015 RMK AO2 SLP211 T01060061
KDEC 060254Z 21003KT 10SM CLR 11/06 A3015 RMK AO2 SLP210 T01110061 53008
KDEC 060154Z 17003KT 10SM CLR 12/06 A3014 RMK AO2 SLP205 T01220056
KDEC 060054Z 00000KT 10SM CLR 16/03 A3014 RMK AO2 SLP204 T01560028